Alvordton, Ohio
Current Conditions -  °F | °C
As of 9:55 AM on Monday 24 Nov 2014 (Local Time) from KUSE Reporting Station
Overcast Overcast  
Wind Chill: 55°   Ceiling: 2000
Heat Index: 55°   Visibility: 10mi
Dew Point: 52°   Wind: 21mph
Humidity: 88%   Direction: 220°SW
Pressure: 29.14"   Gusts: 32mph
Location:  41.67°N, 84.44°W
Report Text: KUSE 241455Z AUTO 22018G28KT 10SM OVC020 13/11 A2914 RMK AO2
Loading
Personal Weather Stations






























Interactive Weather Map New forecast layout! Learn more

10-Day Weather Forecast

Advertisements
Track Severe Weather on mobile